sensor_id;sensor_type;location;lat;lon;timestamp;P1;durP1;ratioP1;P2;durP2;ratioP2
10657;SDS011;5377;43.276;26.930;2023-04-25T00:00:43;8.55;;;4.63;;
10657;SDS011;5377;43.276;26.930;2023-04-25T00:03:10;8.20;;;5.10;;
10657;SDS011;5377;43.276;26.930;2023-04-25T00:05:37;6.28;;;5.03;;
10657;SDS011;5377;43.276;26.930;2023-04-25T00:08:05;9.13;;;5.22;;
10657;SDS011;5377;43.276;26.930;2023-04-25T00:10:32;9.50;;;6.28;;
10657;SDS011;5377;43.276;26.930;2023-04-25T00:12:58;7.30;;;5.68;;
10657;SDS011;5377;43.276;26.930;2023-04-25T00:15:27;9.60;;;6.25;;
10657;SDS011;5377;43.276;26.930;2023-04-25T00:17:55;8.43;;;5.22;;
10657;SDS011;5377;43.276;26.930;2023-04-25T00:20:22;7.45;;;5.03;;
10657;SDS011;5377;43.276;26.930;2023-04-25T00:22:50;6.60;;;5.03;;
10657;SDS011;5377;43.276;26.930;2023-04-25T00:25:19;5.78;;;4.85;;
10657;SDS011;5377;43.276;26.930;2023-04-25T00:27:46;8.02;;;5.25;;
10657;SDS011;5377;43.276;26.930;2023-04-25T00:30:13;5.22;;;4.78;;
10657;SDS011;5377;43.276;26.930;2023-04-25T00:32:40;7.22;;;5.18;;
10657;SDS011;5377;43.276;26.930;2023-04-25T00:35:07;7.72;;;5.30;;
10657;SDS011;5377;43.276;26.930;2023-04-25T00:37:35;11.10;;;5.60;;
10657;SDS011;5377;43.276;26.930;2023-04-25T00:40:03;6.45;;;4.45;;
10657;SDS011;5377;43.276;26.930;2023-04-25T00:42:34;7.78;;;5.40;;
10657;SDS011;5377;43.276;26.930;2023-04-25T00:45:02;8.98;;;5.60;;
10657;SDS011;5377;43.276;26.930;2023-04-25T00:47:32;8.63;;;5.80;;
10657;SDS011;5377;43.276;26.930;2023-04-25T00:49:59;7.40;;;5.75;;
10657;SDS011;5377;43.276;26.930;2023-04-25T00:52:26;8.00;;;6.00;;
10657;SDS011;5377;43.276;26.930;2023-04-25T00:54:53;8.40;;;5.28;;
10657;SDS011;5377;43.276;26.930;2023-04-25T00:57:20;7.80;;;5.13;;
10657;SDS011;5377;43.276;26.930;2023-04-25T00:59:48;6.82;;;6.07;;
10657;SDS011;5377;43.276;26.930;2023-04-25T01:02:18;8.07;;;6.05;;
10657;SDS011;5377;43.276;26.930;2023-04-25T01:04:45;7.72;;;5.57;;
10657;SDS011;5377;43.276;26.930;2023-04-25T01:07:13;9.35;;;6.43;;
10657;SDS011;5377;43.276;26.930;2023-04-25T01:09:41;7.38;;;5.45;;
10657;SDS011;5377;43.276;26.930;2023-04-25T01:12:08;5.55;;;5.05;;
10657;SDS011;5377;43.276;26.930;2023-04-25T01:14:35;5.55;;;5.05;;
10657;SDS011;5377;43.276;26.930;2023-04-25T01:17:03;8.50;;;6.18;;
10657;SDS011;5377;43.276;26.930;2023-04-25T01:19:30;6.57;;;5.70;;
10657;SDS011;5377;43.276;26.930;2023-04-25T01:21:58;15.77;;;6.78;;
10657;SDS011;5377;43.276;26.930;2023-04-25T01:24:26;6.78;;;5.53;;
10657;SDS011;5377;43.276;26.930;2023-04-25T01:26:53;7.85;;;5.68;;
10657;SDS011;5377;43.276;26.930;2023-04-25T01:29:21;6.32;;;5.75;;
10657;SDS011;5377;43.276;26.930;2023-04-25T01:31:48;6.25;;;5.65;;
10657;SDS011;5377;43.276;26.930;2023-04-25T01:34:17;6.80;;;5.38;;
10657;SDS011;5377;43.276;26.930;2023-04-25T01:36:44;7.32;;;5.82;;
10657;SDS011;5377;43.276;26.930;2023-04-25T01:39:13;8.00;;;6.15;;
10657;SDS011;5377;43.276;26.930;2023-04-25T01:41:41;7.53;;;6.25;;
10657;SDS011;5377;43.276;26.930;2023-04-25T01:44:08;9.35;;;5.80;;
10657;SDS011;5377;43.276;26.930;2023-04-25T01:46:35;8.20;;;6.30;;
10657;SDS011;5377;43.276;26.930;2023-04-25T01:49:02;13.73;;;6.93;;
10657;SDS011;5377;43.276;26.930;2023-04-25T01:51:29;10.90;;;7.60;;
10657;SDS011;5377;43.276;26.930;2023-04-25T01:53:56;9.27;;;7.22;;
10657;SDS011;5377;43.276;26.930;2023-04-25T01:56:25;8.90;;;6.65;;
10657;SDS011;5377;43.276;26.930;2023-04-25T01:58:57;8.13;;;6.50;;
10657;SDS011;5377;43.276;26.930;2023-04-25T02:01:24;8.48;;;6.30;;
10657;SDS011;5377;43.276;26.930;2023-04-25T02:03:51;11.35;;;7.78;;
10657;SDS011;5377;43.276;26.930;2023-04-25T02:06:18;17.35;;;7.50;;
10657;SDS011;5377;43.276;26.930;2023-04-25T02:08:44;11.20;;;7.80;;
10657;SDS011;5377;43.276;26.930;2023-04-25T02:11:11;27.98;;;9.63;;
10657;SDS011;5377;43.276;26.930;2023-04-25T02:13:39;12.27;;;7.32;;
10657;SDS011;5377;43.276;26.930;2023-04-25T02:16:06;9.75;;;6.47;;
10657;SDS011;5377;43.276;26.930;2023-04-25T02:18:33;14.45;;;8.18;;
10657;SDS011;5377;43.276;26.930;2023-04-25T02:21:02;10.38;;;7.60;;
10657;SDS011;5377;43.276;26.930;2023-04-25T02:23:29;15.93;;;7.70;;
10657;SDS011;5377;43.276;26.930;2023-04-25T02:25:56;13.65;;;7.82;;
10657;SDS011;5377;43.276;26.930;2023-04-25T02:28:23;10.30;;;7.63;;
10657;SDS011;5377;43.276;26.930;2023-04-25T02:30:52;13.32;;;8.55;;
10657;SDS011;5377;43.276;26.930;2023-04-25T02:33:19;15.57;;;8.23;;
10657;SDS011;5377;43.276;26.930;2023-04-25T02:35:46;15.65;;;8.32;;
10657;SDS011;5377;43.276;26.930;2023-04-25T02:38:13;15.85;;;8.25;;
10657;SDS011;5377;43.276;26.930;2023-04-25T02:40:40;14.65;;;8.20;;
10657;SDS011;5377;43.276;26.930;2023-04-25T02:43:06;9.63;;;7.70;;
10657;SDS011;5377;43.276;26.930;2023-04-25T02:45:33;14.00;;;9.20;;
10657;SDS011;5377;43.276;26.930;2023-04-25T02:48:01;17.50;;;8.90;;
10657;SDS011;5377;43.276;26.930;2023-04-25T02:50:28;14.20;;;8.70;;
10657;SDS011;5377;43.276;26.930;2023-04-25T02:52:55;14.85;;;8.80;;
10657;SDS011;5377;43.276;26.930;2023-04-25T02:55:22;20.50;;;9.65;;
10657;SDS011;5377;43.276;26.930;2023-04-25T02:57:49;16.40;;;9.68;;
10657;SDS011;5377;43.276;26.930;2023-04-25T03:00:15;15.95;;;10.93;;
10657;SDS011;5377;43.276;26.930;2023-04-25T03:02:42;14.85;;;9.50;;
10657;SDS011;5377;43.276;26.930;2023-04-25T03:05:10;13.30;;;8.75;;
10657;SDS011;5377;43.276;26.930;2023-04-25T03:07:37;15.95;;;10.50;;
10657;SDS011;5377;43.276;26.930;2023-04-25T03:10:05;15.95;;;10.57;;
10657;SDS011;5377;43.276;26.930;2023-04-25T03:12:32;17.85;;;10.23;;
10657;SDS011;5377;43.276;26.930;2023-04-25T03:14:59;20.33;;;11.60;;
10657;SDS011;5377;43.276;26.930;2023-04-25T03:17:26;10.88;;;9.70;;
10657;SDS011;5377;43.276;26.930;2023-04-25T03:19:53;9.95;;;7.30;;
10657;SDS011;5377;43.276;26.930;2023-04-25T03:22:21;12.93;;;8.27;;
10657;SDS011;5377;43.276;26.930;2023-04-25T03:24:48;17.73;;;10.55;;
10657;SDS011;5377;43.276;26.930;2023-04-25T03:27:16;14.77;;;10.50;;
10657;SDS011;5377;43.276;26.930;2023-04-25T03:29:42;12.05;;;9.07;;
10657;SDS011;5377;43.276;26.930;2023-04-25T03:32:09;17.25;;;9.43;;
10657;SDS011;5377;43.276;26.930;2023-04-25T03:34:36;17.30;;;9.68;;
10657;SDS011;5377;43.276;26.930;2023-04-25T03:37:03;24.83;;;13.43;;
10657;SDS011;5377;43.276;26.930;2023-04-25T03:39:31;14.68;;;9.48;;
10657;SDS011;5377;43.276;26.930;2023-04-25T03:41:58;15.98;;;11.38;;
10657;SDS011;5377;43.276;26.930;2023-04-25T03:44:25;14.35;;;12.95;;
10657;SDS011;5377;43.276;26.930;2023-04-25T03:46:51;20.48;;;13.15;;
10657;SDS011;5377;43.276;26.930;2023-04-25T03:49:18;11.30;;;8.18;;
10657;SDS011;5377;43.276;26.930;2023-04-25T03:51:45;23.42;;;10.35;;
10657;SDS011;5377;43.276;26.930;2023-04-25T03:54:12;15.90;;;11.20;;
10657;SDS011;5377;43.276;26.930;2023-04-25T03:56:40;14.63;;;8.73;;
10657;SDS011;5377;43.276;26.930;2023-04-25T03:59:07;19.02;;;11.27;;
10657;SDS011;5377;43.276;26.930;2023-04-25T04:01:34;17.33;;;12.23;;
10657;SDS011;5377;43.276;26.930;2023-04-25T04:04:00;19.20;;;10.95;;
10657;SDS011;5377;43.276;26.930;2023-04-25T04:06:27;22.48;;;12.18;;
10657;SDS011;5377;43.276;26.930;2023-04-25T04:08:54;21.38;;;12.25;;
10657;SDS011;5377;43.276;26.930;2023-04-25T04:11:21;26.35;;;12.07;;
10657;SDS011;5377;43.276;26.930;2023-04-25T04:13:50;16.98;;;12.90;;
10657;SDS011;5377;43.276;26.930;2023-04-25T04:16:16;24.60;;;12.25;;
10657;SDS011;5377;43.276;26.930;2023-04-25T04:18:44;23.58;;;12.43;;
10657;SDS011;5377;43.276;26.930;2023-04-25T04:21:11;18.20;;;9.90;;
10657;SDS011;5377;43.276;26.930;2023-04-25T04:23:38;30.45;;;11.65;;
10657;SDS011;5377;43.276;26.930;2023-04-25T04:26:05;22.08;;;11.38;;
10657;SDS011;5377;43.276;26.930;2023-04-25T04:28:32;35.58;;;11.75;;
10657;SDS011;5377;43.276;26.930;2023-04-25T04:31:00;21.73;;;10.70;;
10657;SDS011;5377;43.276;26.930;2023-04-25T04:33:27;13.30;;;8.13;;
10657;SDS011;5377;43.276;26.930;2023-04-25T04:35:54;15.82;;;9.10;;
10657;SDS011;5377;43.276;26.930;2023-04-25T04:38:21;19.83;;;10.32;;
10657;SDS011;5377;43.276;26.930;2023-04-25T04:40:48;20.50;;;9.50;;
10657;SDS011;5377;43.276;26.930;2023-04-25T04:43:15;16.77;;;9.48;;
10657;SDS011;5377;43.276;26.930;2023-04-25T04:45:43;18.95;;;9.45;;
10657;SDS011;5377;43.276;26.930;2023-04-25T04:48:12;14.65;;;9.10;;
10657;SDS011;5377;43.276;26.930;2023-04-25T04:50:39;23.27;;;11.45;;
10657;SDS011;5377;43.276;26.930;2023-04-25T04:53:06;30.02;;;9.80;;
10657;SDS011;5377;43.276;26.930;2023-04-25T04:55:33;26.88;;;10.55;;
10657;SDS011;5377;43.276;26.930;2023-04-25T04:58:00;33.88;;;13.85;;
10657;SDS011;5377;43.276;26.930;2023-04-25T05:00:27;30.10;;;12.25;;
10657;SDS011;5377;43.276;26.930;2023-04-25T05:02:54;18.33;;;10.82;;
10657;SDS011;5377;43.276;26.930;2023-04-25T05:05:22;27.65;;;10.98;;
10657;SDS011;5377;43.276;26.930;2023-04-25T05:07:49;29.45;;;9.82;;
10657;SDS011;5377;43.276;26.930;2023-04-25T05:10:16;25.38;;;11.10;;
10657;SDS011;5377;43.276;26.930;2023-04-25T05:12:43;22.58;;;9.18;;
10657;SDS011;5377;43.276;26.930;2023-04-25T05:15:10;13.38;;;8.70;;
10657;SDS011;5377;43.276;26.930;2023-04-25T05:17:37;15.55;;;8.90;;
10657;SDS011;5377;43.276;26.930;2023-04-25T05:20:05;27.80;;;10.38;;
10657;SDS011;5377;43.276;26.930;2023-04-25T05:22:35;15.85;;;8.93;;
10657;SDS011;5377;43.276;26.930;2023-04-25T05:25:02;21.30;;;9.70;;
10657;SDS011;5377;43.276;26.930;2023-04-25T05:27:29;23.35;;;9.95;;
10657;SDS011;5377;43.276;26.930;2023-04-25T05:29:56;33.20;;;9.68;;
10657;SDS011;5377;43.276;26.930;2023-04-25T05:32:23;33.90;;;11.85;;
10657;SDS011;5377;43.276;26.930;2023-04-25T05:34:50;42.63;;;14.18;;
10657;SDS011;5377;43.276;26.930;2023-04-25T05:37:17;31.00;;;12.55;;
10657;SDS011;5377;43.276;26.930;2023-04-25T05:39:45;31.05;;;11.63;;
10657;SDS011;5377;43.276;26.930;2023-04-25T05:42:12;32.45;;;12.57;;
10657;SDS011;5377;43.276;26.930;2023-04-25T05:44:39;32.65;;;12.77;;
10657;SDS011;5377;43.276;26.930;2023-04-25T05:47:06;19.27;;;8.70;;
10657;SDS011;5377;43.276;26.930;2023-04-25T05:49:33;23.23;;;9.48;;
10657;SDS011;5377;43.276;26.930;2023-04-25T05:52:00;19.73;;;8.50;;
10657;SDS011;5377;43.276;26.930;2023-04-25T05:54:27;19.70;;;10.77;;
10657;SDS011;5377;43.276;26.930;2023-04-25T05:56:55;19.73;;;7.45;;
10657;SDS011;5377;43.276;26.930;2023-04-25T05:59:22;20.60;;;6.80;;
10657;SDS011;5377;43.276;26.930;2023-04-25T06:01:49;14.30;;;6.43;;
10657;SDS011;5377;43.276;26.930;2023-04-25T06:04:16;22.23;;;9.23;;
10657;SDS011;5377;43.276;26.930;2023-04-25T06:06:43;9.23;;;6.43;;
10657;SDS011;5377;43.276;26.930;2023-04-25T06:09:10;22.20;;;8.38;;
10657;SDS011;5377;43.276;26.930;2023-04-25T06:11:37;22.10;;;9.18;;
10657;SDS011;5377;43.276;26.930;2023-04-25T06:14:05;32.38;;;7.90;;
10657;SDS011;5377;43.276;26.930;2023-04-25T06:16:32;12.82;;;6.03;;
10657;SDS011;5377;43.276;26.930;2023-04-25T06:18:59;19.23;;;7.13;;
10657;SDS011;5377;43.276;26.930;2023-04-25T06:21:26;11.48;;;5.95;;
10657;SDS011;5377;43.276;26.930;2023-04-25T06:23:53;11.38;;;4.97;;
10657;SDS011;5377;43.276;26.930;2023-04-25T06:26:20;13.18;;;6.45;;
10657;SDS011;5377;43.276;26.930;2023-04-25T06:28:46;14.02;;;5.88;;
10657;SDS011;5377;43.276;26.930;2023-04-25T06:31:14;10.68;;;6.47;;
10657;SDS011;5377;43.276;26.930;2023-04-25T06:33:41;19.65;;;7.68;;
10657;SDS011;5377;43.276;26.930;2023-04-25T06:36:08;10.10;;;5.97;;
10657;SDS011;5377;43.276;26.930;2023-04-25T06:38:35;9.52;;;5.40;;
10657;SDS011;5377;43.276;26.930;2023-04-25T06:41:02;5.25;;;4.70;;
10657;SDS011;5377;43.276;26.930;2023-04-25T06:43:28;8.95;;;4.80;;
10657;SDS011;5377;43.276;26.930;2023-04-25T06:45:58;7.30;;;4.80;;
10657;SDS011;5377;43.276;26.930;2023-04-25T06:48:26;10.07;;;5.22;;
10657;SDS011;5377;43.276;26.930;2023-04-25T06:50:53;12.88;;;6.43;;
10657;SDS011;5377;43.276;26.930;2023-04-25T06:53:21;6.05;;;5.00;;
10657;SDS011;5377;43.276;26.930;2023-04-25T06:55:48;14.07;;;5.82;;
10657;SDS011;5377;43.276;26.930;2023-04-25T06:58:15;17.50;;;6.47;;
10657;SDS011;5377;43.276;26.930;2023-04-25T07:00:42;8.85;;;5.85;;
10657;SDS011;5377;43.276;26.930;2023-04-25T07:03:09;6.13;;;4.70;;
10657;SDS011;5377;43.276;26.930;2023-04-25T07:05:37;10.32;;;4.70;;
10657;SDS011;5377;43.276;26.930;2023-04-25T07:08:04;7.90;;;4.00;;
10657;SDS011;5377;43.276;26.930;2023-04-25T07:10:31;12.75;;;5.78;;
10657;SDS011;5377;43.276;26.930;2023-04-25T07:12:57;9.40;;;4.90;;
10657;SDS011;5377;43.276;26.930;2023-04-25T07:15:24;6.07;;;4.15;;
10657;SDS011;5377;43.276;26.930;2023-04-25T07:17:51;15.27;;;6.38;;
10657;SDS011;5377;43.276;26.930;2023-04-25T07:20:18;9.38;;;4.88;;
10657;SDS011;5377;43.276;26.930;2023-04-25T07:22:46;11.43;;;4.93;;
10657;SDS011;5377;43.276;26.930;2023-04-25T07:25:13;11.07;;;4.43;;
10657;SDS011;5377;43.276;26.930;2023-04-25T07:27:39;10.15;;;4.80;;
10657;SDS011;5377;43.276;26.930;2023-04-25T07:30:07;8.60;;;4.70;;
10657;SDS011;5377;43.276;26.930;2023-04-25T07:32:34;9.13;;;4.13;;
10657;SDS011;5377;43.276;26.930;2023-04-25T07:35:01;10.07;;;4.72;;
10657;SDS011;5377;43.276;26.930;2023-04-25T07:37:28;7.18;;;4.35;;
10657;SDS011;5377;43.276;26.930;2023-04-25T07:39:56;7.57;;;4.97;;
10657;SDS011;5377;43.276;26.930;2023-04-25T07:42:23;10.52;;;5.10;;
10657;SDS011;5377;43.276;26.930;2023-04-25T07:44:50;22.77;;;6.75;;
10657;SDS011;5377;43.276;26.930;2023-04-25T07:47:17;11.23;;;4.55;;
10657;SDS011;5377;43.276;26.930;2023-04-25T07:49:45;34.17;;;7.53;;
10657;SDS011;5377;43.276;26.930;2023-04-25T07:52:11;13.77;;;4.50;;
10657;SDS011;5377;43.276;26.930;2023-04-25T07:54:38;8.02;;;4.03;;
10657;SDS011;5377;43.276;26.930;2023-04-25T07:57:07;5.93;;;3.53;;
10657;SDS011;5377;43.276;26.930;2023-04-25T07:59:33;7.10;;;3.15;;
10657;SDS011;5377;43.276;26.930;2023-04-25T08:02:00;5.38;;;3.40;;
10657;SDS011;5377;43.276;26.930;2023-04-25T08:04:27;4.30;;;2.72;;
10657;SDS011;5377;43.276;26.930;2023-04-25T08:06:54;4.03;;;2.55;;
10657;SDS011;5377;43.276;26.930;2023-04-25T08:09:21;6.22;;;3.30;;
10657;SDS011;5377;43.276;26.930;2023-04-25T08:11:48;8.27;;;2.78;;
10657;SDS011;5377;43.276;26.930;2023-04-25T08:14:16;3.33;;;2.20;;
10657;SDS011;5377;43.276;26.930;2023-04-25T08:16:43;37.70;;;8.23;;
10657;SDS011;5377;43.276;26.930;2023-04-25T08:19:10;10.15;;;3.55;;
10657;SDS011;5377;43.276;26.930;2023-04-25T08:21:37;16.58;;;4.18;;
10657;SDS011;5377;43.276;26.930;2023-04-25T08:24:04;7.95;;;3.25;;
10657;SDS011;5377;43.276;26.930;2023-04-25T08:26:31;5.50;;;2.80;;
10657;SDS011;5377;43.276;26.930;2023-04-25T08:28:59;3.25;;;2.80;;
10657;SDS011;5377;43.276;26.930;2023-04-25T08:31:27;2.80;;;2.05;;
10657;SDS011;5377;43.276;26.930;2023-04-25T08:33:54;7.38;;;2.95;;
10657;SDS011;5377;43.276;26.930;2023-04-25T08:36:21;5.07;;;1.42;;
10657;SDS011;5377;43.276;26.930;2023-04-25T08:38:49;2.30;;;1.38;;
10657;SDS011;5377;43.276;26.930;2023-04-25T08:41:15;1.45;;;1.00;;
10657;SDS011;5377;43.276;26.930;2023-04-25T08:43:44;6.53;;;1.40;;
10657;SDS011;5377;43.276;26.930;2023-04-25T08:46:11;2.63;;;1.15;;
10657;SDS011;5377;43.276;26.930;2023-04-25T08:48:41;2.20;;;1.10;;
10657;SDS011;5377;43.276;26.930;2023-04-25T08:51:12;1.33;;;0.90;;
10657;SDS011;5377;43.276;26.930;2023-04-25T08:53:42;1.25;;;0.70;;
10657;SDS011;5377;43.276;26.930;2023-04-25T08:56:11;1.10;;;0.77;;
10657;SDS011;5377;43.276;26.930;2023-04-25T08:58:42;5.22;;;1.05;;
10657;SDS011;5377;43.276;26.930;2023-04-25T09:01:11;1.00;;;0.55;;
10657;SDS011;5377;43.276;26.930;2023-04-25T09:03:37;0.70;;;0.70;;
10657;SDS011;5377;43.276;26.930;2023-04-25T09:06:06;2.35;;;1.00;;
10657;SDS011;5377;43.276;26.930;2023-04-25T09:08:35;0.52;;;0.52;;
10657;SDS011;5377;43.276;26.930;2023-04-25T09:11:02;2.70;;;0.90;;
10657;SDS011;5377;43.276;26.930;2023-04-25T09:13:29;1.35;;;0.60;;
10657;SDS011;5377;43.276;26.930;2023-04-25T09:15:57;4.50;;;1.00;;
10657;SDS011;5377;43.276;26.930;2023-04-25T09:18:24;2.97;;;1.33;;
10657;SDS011;5377;43.276;26.930;2023-04-25T09:20:52;4.68;;;1.60;;
10657;SDS011;5377;43.276;26.930;2023-04-25T09:23:21;1.15;;;0.70;;
10657;SDS011;5377;43.276;26.930;2023-04-25T09:25:49;5.93;;;1.13;;
10657;SDS011;5377;43.276;26.930;2023-04-25T09:28:22;1.35;;;0.82;;
10657;SDS011;5377;43.276;26.930;2023-04-25T09:30:54;8.07;;;2.33;;
10657;SDS011;5377;43.276;26.930;2023-04-25T09:33:23;8.35;;;2.20;;
10657;SDS011;5377;43.276;26.930;2023-04-25T09:35:54;4.30;;;0.85;;
10657;SDS011;5377;43.276;26.930;2023-04-25T09:38:30;3.88;;;1.27;;
10657;SDS011;5377;43.276;26.930;2023-04-25T09:40:57;2.00;;;1.13;;
10657;SDS011;5377;43.276;26.930;2023-04-25T09:43:25;7.75;;;1.67;;
10657;SDS011;5377;43.276;26.930;2023-04-25T09:45:53;1.13;;;0.73;;
10657;SDS011;5377;43.276;26.930;2023-04-25T09:48:22;5.50;;;1.00;;
10657;SDS011;5377;43.276;26.930;2023-04-25T09:51:03;3.15;;;0.93;;
10657;SDS011;5377;43.276;26.930;2023-04-25T09:53:32;2.40;;;0.70;;
10657;SDS011;5377;43.276;26.930;2023-04-25T09:55:59;1.15;;;0.60;;
10657;SDS011;5377;43.276;26.930;2023-04-25T09:58:30;1.17;;;0.55;;
10657;SDS011;5377;43.276;26.930;2023-04-25T10:00:59;1.08;;;0.70;;
10657;SDS011;5377;43.276;26.930;2023-04-25T10:03:26;2.83;;;0.90;;
10657;SDS011;5377;43.276;26.930;2023-04-25T10:05:57;1.73;;;1.10;;
10657;SDS011;5377;43.276;26.930;2023-04-25T10:08:27;2.13;;;0.60;;
10657;SDS011;5377;43.276;26.930;2023-04-25T10:10:59;5.47;;;0.70;;
10657;SDS011;5377;43.276;26.930;2023-04-25T10:13:27;1.85;;;0.70;;
10657;SDS011;5377;43.276;26.930;2023-04-25T10:15:55;1.98;;;1.85;;
10657;SDS011;5377;43.276;26.930;2023-04-25T10:18:24;1.75;;;0.80;;
10657;SDS011;5377;43.276;26.930;2023-04-25T10:20:51;1.00;;;0.63;;
10657;SDS011;5377;43.276;26.930;2023-04-25T10:23:20;2.05;;;0.80;;
10657;SDS011;5377;43.276;26.930;2023-04-25T10:25:47;2.33;;;0.98;;
10657;SDS011;5377;43.276;26.930;2023-04-25T10:28:16;4.85;;;1.45;;
10657;SDS011;5377;43.276;26.930;2023-04-25T10:30:56;2.70;;;0.98;;
10657;SDS011;5377;43.276;26.930;2023-04-25T10:33:29;4.30;;;0.95;;
10657;SDS011;5377;43.276;26.930;2023-04-25T10:35:58;3.45;;;1.52;;
10657;SDS011;5377;43.276;26.930;2023-04-25T10:38:25;19.67;;;2.38;;
10657;SDS011;5377;43.276;26.930;2023-04-25T10:43:39;4.43;;;1.00;;
10657;SDS011;5377;43.276;26.930;2023-04-25T10:46:13;2.28;;;0.82;;
10657;SDS011;5377;43.276;26.930;2023-04-25T10:48:45;1.35;;;0.50;;
10657;SDS011;5377;43.276;26.930;2023-04-25T10:51:16;8.63;;;1.33;;
10657;SDS011;5377;43.276;26.930;2023-04-25T10:53:44;2.70;;;0.80;;
10657;SDS011;5377;43.276;26.930;2023-04-25T10:56:16;4.13;;;0.70;;
10657;SDS011;5377;43.276;26.930;2023-04-25T10:58:45;1.10;;;0.80;;
10657;SDS011;5377;43.276;26.930;2023-04-25T11:01:12;5.72;;;1.40;;
10657;SDS011;5377;43.276;26.930;2023-04-25T11:03:40;2.40;;;0.93;;
10657;SDS011;5377;43.276;26.930;2023-04-25T11:06:10;8.18;;;1.52;;
10657;SDS011;5377;43.276;26.930;2023-04-25T11:08:47;2.88;;;1.25;;
10657;SDS011;5377;43.276;26.930;2023-04-25T11:11:15;4.18;;;1.83;;
10657;SDS011;5377;43.276;26.930;2023-04-25T11:13:42;5.25;;;2.28;;
10657;SDS011;5377;43.276;26.930;2023-04-25T11:16:11;6.53;;;1.40;;
10657;SDS011;5377;43.276;26.930;2023-04-25T11:18:40;0.68;;;0.60;;
10657;SDS011;5377;43.276;26.930;2023-04-25T11:21:07;0.40;;;0.40;;
10657;SDS011;5377;43.276;26.930;2023-04-25T11:23:34;0.95;;;0.90;;
10657;SDS011;5377;43.276;26.930;2023-04-25T11:26:01;1.20;;;1.10;;
10657;SDS011;5377;43.276;26.930;2023-04-25T11:28:29;7.30;;;1.70;;
10657;SDS011;5377;43.276;26.930;2023-04-25T11:30:55;2.25;;;0.90;;
10657;SDS011;5377;43.276;26.930;2023-04-25T11:33:25;0.82;;;0.82;;
10657;SDS011;5377;43.276;26.930;2023-04-25T11:35:53;2.30;;;1.23;;
10657;SDS011;5377;43.276;26.930;2023-04-25T11:38:21;1.35;;;0.77;;
10657;SDS011;5377;43.276;26.930;2023-04-25T11:40:51;4.53;;;1.30;;
10657;SDS011;5377;43.276;26.930;2023-04-25T11:43:19;1.52;;;1.10;;
10657;SDS011;5377;43.276;26.930;2023-04-25T11:45:47;5.93;;;1.70;;
10657;SDS011;5377;43.276;26.930;2023-04-25T11:48:14;4.88;;;1.60;;
10657;SDS011;5377;43.276;26.930;2023-04-25T11:50:42;3.75;;;2.45;;
10657;SDS011;5377;43.276;26.930;2023-04-25T11:53:09;5.20;;;1.77;;
10657;SDS011;5377;43.276;26.930;2023-04-25T11:55:36;6.32;;;1.25;;
10657;SDS011;5377;43.276;26.930;2023-04-25T11:58:03;4.85;;;1.35;;
10657;SDS011;5377;43.276;26.930;2023-04-25T12:00:31;5.13;;;1.90;;
10657;SDS011;5377;43.276;26.930;2023-04-25T12:02:58;3.13;;;1.50;;
10657;SDS011;5377;43.276;26.930;2023-04-25T12:05:26;3.25;;;1.30;;
10657;SDS011;5377;43.276;26.930;2023-04-25T12:07:55;1.85;;;1.20;;
10657;SDS011;5377;43.276;26.930;2023-04-25T12:10:23;4.93;;;1.67;;
10657;SDS011;5377;43.276;26.930;2023-04-25T12:12:51;7.22;;;2.45;;
10657;SDS011;5377;43.276;26.930;2023-04-25T12:15:22;8.57;;;2.10;;
10657;SDS011;5377;43.276;26.930;2023-04-25T12:17:51;4.15;;;1.45;;
10657;SDS011;5377;43.276;26.930;2023-04-25T12:20:19;7.95;;;2.25;;
10657;SDS011;5377;43.276;26.930;2023-04-25T12:22:49;4.55;;;1.48;;
10657;SDS011;5377;43.276;26.930;2023-04-25T12:28:10;4.13;;;1.40;;
10657;SDS011;5377;43.276;26.930;2023-04-25T12:30:51;2.65;;;1.20;;
10657;SDS011;5377;43.276;26.930;2023-04-25T12:33:20;1.60;;;1.50;;
10657;SDS011;5377;43.276;26.930;2023-04-25T12:35:47;3.05;;;1.13;;
10657;SDS011;5377;43.276;26.930;2023-04-25T12:38:20;3.83;;;1.60;;
10657;SDS011;5377;43.276;26.930;2023-04-25T12:40:48;0.63;;;0.60;;
10657;SDS011;5377;43.276;26.930;2023-04-25T12:43:15;2.92;;;0.40;;
10657;SDS011;5377;43.276;26.930;2023-04-25T12:45:42;1.55;;;0.40;;
10657;SDS011;5377;43.276;26.930;2023-04-25T12:48:09;6.10;;;0.55;;
10657;SDS011;5377;43.276;26.930;2023-04-25T12:50:36;1.42;;;0.80;;
10657;SDS011;5377;43.276;26.930;2023-04-25T12:53:03;6.13;;;1.00;;
10657;SDS011;5377;43.276;26.930;2023-04-25T12:55:30;0.75;;;0.40;;
10657;SDS011;5377;43.276;26.930;2023-04-25T12:57:58;2.45;;;0.77;;
10657;SDS011;5377;43.276;26.930;2023-04-25T13:00:25;2.95;;;1.13;;
10657;SDS011;5377;43.276;26.930;2023-04-25T13:02:52;3.50;;;0.60;;
10657;SDS011;5377;43.276;26.930;2023-04-25T13:05:19;2.08;;;0.65;;
10657;SDS011;5377;43.276;26.930;2023-04-25T13:07:46;0.63;;;0.63;;
10657;SDS011;5377;43.276;26.930;2023-04-25T13:10:13;3.83;;;0.50;;
10657;SDS011;5377;43.276;26.930;2023-04-25T13:12:40;0.80;;;0.63;;
10657;SDS011;5377;43.276;26.930;2023-04-25T13:15:09;0.77;;;0.30;;
10657;SDS011;5377;43.276;26.930;2023-04-25T13:17:36;1.55;;;0.80;;
10657;SDS011;5377;43.276;26.930;2023-04-25T13:20:04;0.50;;;0.50;;
10657;SDS011;5377;43.276;26.930;2023-04-25T13:22:34;1.15;;;0.80;;
10657;SDS011;5377;43.276;26.930;2023-04-25T13:25:02;1.30;;;1.13;;
10657;SDS011;5377;43.276;26.930;2023-04-25T13:27:30;3.92;;;1.25;;
10657;SDS011;5377;43.276;26.930;2023-04-25T13:29:58;1.83;;;1.73;;
10657;SDS011;5377;43.276;26.930;2023-04-25T13:32:27;1.17;;;1.08;;
10657;SDS011;5377;43.276;26.930;2023-04-25T13:34:54;4.97;;;1.38;;
10657;SDS011;5377;43.276;26.930;2023-04-25T13:37:21;2.35;;;1.50;;
10657;SDS011;5377;43.276;26.930;2023-04-25T13:39:49;2.85;;;1.77;;
10657;SDS011;5377;43.276;26.930;2023-04-25T13:42:16;4.63;;;2.67;;
10657;SDS011;5377;43.276;26.930;2023-04-25T13:44:43;6.95;;;3.95;;
10657;SDS011;5377;43.276;26.930;2023-04-25T13:47:10;3.50;;;3.17;;
10657;SDS011;5377;43.276;26.930;2023-04-25T13:49:38;5.70;;;2.33;;
10657;SDS011;5377;43.276;26.930;2023-04-25T13:52:05;3.33;;;3.03;;
10657;SDS011;5377;43.276;26.930;2023-04-25T13:54:32;2.88;;;2.67;;
10657;SDS011;5377;43.276;26.930;2023-04-25T13:56:59;5.55;;;4.07;;
10657;SDS011;5377;43.276;26.930;2023-04-25T13:59:27;3.42;;;2.25;;
10657;SDS011;5377;43.276;26.930;2023-04-25T14:01:54;3.63;;;2.58;;
10657;SDS011;5377;43.276;26.930;2023-04-25T14:04:20;5.32;;;2.85;;
10657;SDS011;5377;43.276;26.930;2023-04-25T14:06:49;3.30;;;3.00;;
10657;SDS011;5377;43.276;26.930;2023-04-25T14:09:16;3.03;;;1.80;;
10657;SDS011;5377;43.276;26.930;2023-04-25T14:11:43;5.85;;;3.75;;
10657;SDS011;5377;43.276;26.930;2023-04-25T14:14:09;6.50;;;5.25;;
10657;SDS011;5377;43.276;26.930;2023-04-25T14:16:37;7.60;;;6.57;;
10657;SDS011;5377;43.276;26.930;2023-04-25T14:19:04;9.93;;;8.07;;
10657;SDS011;5377;43.276;26.930;2023-04-25T14:21:31;16.88;;;10.52;;
10657;SDS011;5377;43.276;26.930;2023-04-25T14:23:59;6.85;;;4.40;;
10657;SDS011;5377;43.276;26.930;2023-04-25T14:26:26;6.75;;;5.78;;
10657;SDS011;5377;43.276;26.930;2023-04-25T14:28:53;8.75;;;6.15;;
10657;SDS011;5377;43.276;26.930;2023-04-25T14:31:20;8.60;;;7.35;;
10657;SDS011;5377;43.276;26.930;2023-04-25T14:33:47;9.98;;;8.82;;
10657;SDS011;5377;43.276;26.930;2023-04-25T14:36:14;5.38;;;4.97;;
10657;SDS011;5377;43.276;26.930;2023-04-25T14:38:40;4.68;;;3.63;;
10657;SDS011;5377;43.276;26.930;2023-04-25T14:41:09;6.00;;;5.40;;
10657;SDS011;5377;43.276;26.930;2023-04-25T14:43:36;7.10;;;5.38;;
10657;SDS011;5377;43.276;26.930;2023-04-25T14:46:05;7.10;;;5.60;;
10657;SDS011;5377;43.276;26.930;2023-04-25T14:48:32;3.60;;;3.30;;